sensor_id;sensor_type;location;lat;lon;timestamp;pressure;altitude;pressure_sealevel;temperature;humidity
4415;BME280;2220;42.670;23.398;2023-07-28T00:01:55;94934.94;;;15.79;100.00
4415;BME280;2220;42.670;23.398;2023-07-28T00:04:20;94933.75;;;15.90;100.00
4415;BME280;2220;42.670;23.398;2023-07-28T00:06:46;94931.81;;;15.77;100.00
4415;BME280;2220;42.670;23.398;2023-07-28T00:09:11;94937.50;;;15.84;100.00
4415;BME280;2220;42.670;23.398;2023-07-28T00:11:37;94933.91;;;15.80;100.00
4415;BME280;2220;42.670;23.398;2023-07-28T00:14:02;94931.31;;;15.75;100.00
4415;BME280;2220;42.670;23.398;2023-07-28T00:16:28;94932.56;;;15.59;100.00
4415;BME280;2220;42.670;23.398;2023-07-28T00:18:53;94923.66;;;15.55;100.00
4415;BME280;2220;42.670;23.398;2023-07-28T00:21:19;94926.00;;;15.80;100.00
4415;BME280;2220;42.670;23.398;2023-07-28T00:23:44;94930.69;;;15.83;100.00
4415;BME280;2220;42.670;23.398;2023-07-28T00:26:09;94930.47;;;15.80;100.00
4415;BME280;2220;42.670;23.398;2023-07-28T00:28:35;94929.09;;;15.63;100.00
4415;BME280;2220;42.670;23.398;2023-07-28T00:31:00;94929.19;;;15.77;100.00
4415;BME280;2220;42.670;23.398;2023-07-28T00:33:26;94923.59;;;15.65;100.00
4415;BME280;2220;42.670;23.398;2023-07-28T00:35:51;94920.53;;;15.77;100.00
4415;BME280;2220;42.670;23.398;2023-07-28T00:38:17;94935.94;;;15.64;100.00
4415;BME280;2220;42.670;23.398;2023-07-28T00:40:42;94935.31;;;15.49;100.00
4415;BME280;2220;42.670;23.398;2023-07-28T00:43:08;94933.19;;;15.51;100.00
4415;BME280;2220;42.670;23.398;2023-07-28T00:45:33;94936.97;;;15.63;100.00
4415;BME280;2220;42.670;23.398;2023-07-28T00:48:00;94945.69;;;15.59;100.00
4415;BME280;2220;42.670;23.398;2023-07-28T00:50:26;94942.91;;;15.74;100.00
4415;BME280;2220;42.670;23.398;2023-07-28T00:52:52;94952.34;;;15.75;100.00
4415;BME280;2220;42.670;23.398;2023-07-28T00:55:18;94935.41;;;15.62;100.00
4415;BME280;2220;42.670;23.398;2023-07-28T00:57:44;94952.38;;;15.70;100.00
4415;BME280;2220;42.670;23.398;2023-07-28T01:00:10;94950.78;;;15.50;100.00
4415;BME280;2220;42.670;23.398;2023-07-28T01:02:36;94946.28;;;15.32;100.00
4415;BME280;2220;42.670;23.398;2023-07-28T01:05:03;94948.03;;;15.36;100.00
4415;BME280;2220;42.670;23.398;2023-07-28T01:07:46;94959.44;;;15.51;100.00
4415;BME280;2220;42.670;23.398;2023-07-28T01:10:18;94962.53;;;15.53;100.00
4415;BME280;2220;42.670;23.398;2023-07-28T01:12:46;94963.78;;;15.36;100.00
4415;BME280;2220;42.670;23.398;2023-07-28T01:15:11;94959.59;;;15.11;100.00
4415;BME280;2220;42.670;23.398;2023-07-28T01:17:37;94956.56;;;14.99;100.00
4415;BME280;2220;42.670;23.398;2023-07-28T01:20:03;94965.25;;;14.95;100.00
4415;BME280;2220;42.670;23.398;2023-07-28T01:22:48;94955.56;;;14.95;100.00
4415;BME280;2220;42.670;23.398;2023-07-28T01:25:28;94965.16;;;15.05;100.00
4415;BME280;2220;42.670;23.398;2023-07-28T01:27:58;94965.06;;;15.15;100.00
4415;BME280;2220;42.670;23.398;2023-07-28T01:30:26;94954.81;;;14.90;100.00
4415;BME280;2220;42.670;23.398;2023-07-28T01:32:54;94959.25;;;14.94;100.00
4415;BME280;2220;42.670;23.398;2023-07-28T01:35:21;94947.81;;;15.09;100.00
4415;BME280;2220;42.670;23.398;2023-07-28T01:37:46;94957.53;;;15.08;100.00
4415;BME280;2220;42.670;23.398;2023-07-28T01:40:16;94963.75;;;14.89;100.00
4415;BME280;2220;42.670;23.398;2023-07-28T01:42:42;94955.91;;;14.83;100.00
4415;BME280;2220;42.670;23.398;2023-07-28T01:45:08;94944.63;;;14.83;100.00
4415;BME280;2220;42.670;23.398;2023-07-28T01:47:33;94943.53;;;14.89;100.00
4415;BME280;2220;42.670;23.398;2023-07-28T01:49:59;94943.22;;;14.96;100.00
4415;BME280;2220;42.670;23.398;2023-07-28T01:52:24;94934.94;;;14.83;100.00
4415;BME280;2220;42.670;23.398;2023-07-28T01:54:49;94933.91;;;14.85;100.00
4415;BME280;2220;42.670;23.398;2023-07-28T01:57:15;94939.19;;;14.79;100.00
4415;BME280;2220;42.670;23.398;2023-07-28T01:59:41;94939.75;;;14.76;100.00
4415;BME280;2220;42.670;23.398;2023-07-28T02:02:06;94927.78;;;14.65;100.00
4415;BME280;2220;42.670;23.398;2023-07-28T02:04:32;94927.19;;;14.39;100.00
4415;BME280;2220;42.670;23.398;2023-07-28T02:06:57;94917.63;;;14.19;100.00
4415;BME280;2220;42.670;23.398;2023-07-28T02:09:22;94922.84;;;14.19;100.00
4415;BME280;2220;42.670;23.398;2023-07-28T02:11:48;94915.84;;;14.15;100.00
4415;BME280;2220;42.670;23.398;2023-07-28T02:14:13;94909.72;;;14.24;100.00
4415;BME280;2220;42.670;23.398;2023-07-28T02:16:39;94898.88;;;14.02;100.00
4415;BME280;2220;42.670;23.398;2023-07-28T02:19:04;94911.97;;;14.07;100.00
4415;BME280;2220;42.670;23.398;2023-07-28T02:21:30;94908.53;;;14.12;100.00
4415;BME280;2220;42.670;23.398;2023-07-28T02:23:55;94914.91;;;13.95;100.00
4415;BME280;2220;42.670;23.398;2023-07-28T02:26:21;94909.94;;;13.94;100.00
4415;BME280;2220;42.670;23.398;2023-07-28T02:28:46;94917.28;;;13.92;100.00
4415;BME280;2220;42.670;23.398;2023-07-28T02:31:12;94912.84;;;13.92;100.00
4415;BME280;2220;42.670;23.398;2023-07-28T02:33:37;94902.25;;;14.08;100.00
4415;BME280;2220;42.670;23.398;2023-07-28T02:36:06;94909.44;;;14.26;100.00
4415;BME280;2220;42.670;23.398;2023-07-28T02:38:31;94929.03;;;14.34;100.00
4415;BME280;2220;42.670;23.398;2023-07-28T02:40:57;94914.38;;;14.33;100.00
4415;BME280;2220;42.670;23.398;2023-07-28T02:43:22;94920.88;;;14.45;100.00
4415;BME280;2220;42.670;23.398;2023-07-28T02:45:54;94926.00;;;14.61;100.00
4415;BME280;2220;42.670;23.398;2023-07-28T02:48:21;94925.06;;;14.46;100.00
4415;BME280;2220;42.670;23.398;2023-07-28T02:50:47;94916.66;;;14.44;100.00
4415;BME280;2220;42.670;23.398;2023-07-28T02:53:13;94924.78;;;14.48;100.00
4415;BME280;2220;42.670;23.398;2023-07-28T02:55:46;94927.28;;;14.63;100.00
4415;BME280;2220;42.670;23.398;2023-07-28T02:58:12;94930.44;;;14.60;100.00
4415;BME280;2220;42.670;23.398;2023-07-28T03:00:42;94935.75;;;14.50;100.00
4415;BME280;2220;42.670;23.398;2023-07-28T03:03:08;94936.19;;;14.28;100.00
4415;BME280;2220;42.670;23.398;2023-07-28T03:05:38;94934.25;;;14.05;100.00
4415;BME280;2220;42.670;23.398;2023-07-28T03:08:04;94932.88;;;14.12;100.00
4415;BME280;2220;42.670;23.398;2023-07-28T03:10:30;94935.72;;;14.16;100.00
4415;BME280;2220;42.670;23.398;2023-07-28T03:12:55;94937.78;;;14.24;100.00
4415;BME280;2220;42.670;23.398;2023-07-28T03:15:22;94939.16;;;14.11;100.00
4415;BME280;2220;42.670;23.398;2023-07-28T03:17:49;94938.69;;;14.04;100.00
4415;BME280;2220;42.670;23.398;2023-07-28T03:20:14;94947.13;;;13.96;100.00
4415;BME280;2220;42.670;23.398;2023-07-28T03:22:40;94965.19;;;13.97;100.00
4415;BME280;2220;42.670;23.398;2023-07-28T03:25:05;94960.72;;;13.98;100.00
4415;BME280;2220;42.670;23.398;2023-07-28T03:27:31;94960.94;;;14.07;100.00
4415;BME280;2220;42.670;23.398;2023-07-28T03:29:57;94968.72;;;14.17;100.00
4415;BME280;2220;42.670;23.398;2023-07-28T03:32:22;94966.69;;;14.09;100.00
4415;BME280;2220;42.670;23.398;2023-07-28T03:34:47;94970.19;;;14.33;100.00
4415;BME280;2220;42.670;23.398;2023-07-28T03:37:13;94972.91;;;14.62;100.00
4415;BME280;2220;42.670;23.398;2023-07-28T03:39:38;94975.38;;;14.77;100.00
4415;BME280;2220;42.670;23.398;2023-07-28T03:42:04;94988.41;;;14.88;100.00
4415;BME280;2220;42.670;23.398;2023-07-28T03:44:30;94993.03;;;15.01;100.00
4415;BME280;2220;42.670;23.398;2023-07-28T03:46:55;95000.28;;;15.09;100.00
4415;BME280;2220;42.670;23.398;2023-07-28T03:49:21;95002.31;;;15.17;100.00
4415;BME280;2220;42.670;23.398;2023-07-28T03:51:46;94989.03;;;14.74;100.00
4415;BME280;2220;42.670;23.398;2023-07-28T03:54:12;94968.03;;;14.40;100.00
4415;BME280;2220;42.670;23.398;2023-07-28T03:56:37;94939.13;;;14.16;100.00
4415;BME280;2220;42.670;23.398;2023-07-28T03:59:03;94906.91;;;14.16;100.00
4415;BME280;2220;42.670;23.398;2023-07-28T04:01:28;94899.25;;;14.24;100.00
4415;BME280;2220;42.670;23.398;2023-07-28T04:03:54;94882.34;;;14.12;100.00
4415;BME280;2220;42.670;23.398;2023-07-28T04:06:19;94889.19;;;14.03;100.00
4415;BME280;2220;42.670;23.398;2023-07-28T04:09:04;94875.88;;;13.99;100.00
4415;BME280;2220;42.670;23.398;2023-07-28T04:11:29;94852.78;;;13.72;100.00
4415;BME280;2220;42.670;23.398;2023-07-28T04:13:54;94859.19;;;13.90;100.00
4415;BME280;2220;42.670;23.398;2023-07-28T04:16:20;94852.97;;;13.81;100.00
4415;BME280;2220;42.670;23.398;2023-07-28T04:18:45;94861.91;;;14.09;100.00
4415;BME280;2220;42.670;23.398;2023-07-28T04:21:11;94863.16;;;14.16;100.00
4415;BME280;2220;42.670;23.398;2023-07-28T04:23:36;94873.56;;;14.26;100.00
4415;BME280;2220;42.670;23.398;2023-07-28T04:26:02;94884.50;;;14.34;100.00
4415;BME280;2220;42.670;23.398;2023-07-28T04:28:27;94865.00;;;14.16;100.00
4415;BME280;2220;42.670;23.398;2023-07-28T04:30:52;94859.84;;;14.06;100.00
4415;BME280;2220;42.670;23.398;2023-07-28T04:33:18;94869.25;;;14.46;100.00
4415;BME280;2220;42.670;23.398;2023-07-28T04:35:43;94891.03;;;14.70;100.00
4415;BME280;2220;42.670;23.398;2023-07-28T04:38:09;94914.09;;;14.97;100.00
4415;BME280;2220;42.670;23.398;2023-07-28T04:40:34;94934.13;;;15.12;100.00
4415;BME280;2220;42.670;23.398;2023-07-28T04:43:00;94930.69;;;15.17;100.00
4415;BME280;2220;42.670;23.398;2023-07-28T04:45:25;94936.94;;;15.21;100.00
4415;BME280;2220;42.670;23.398;2023-07-28T04:47:50;94934.34;;;15.39;100.00
4415;BME280;2220;42.670;23.398;2023-07-28T04:50:16;94939.34;;;15.17;100.00
4415;BME280;2220;42.670;23.398;2023-07-28T04:52:41;94943.72;;;15.22;100.00
4415;BME280;2220;42.670;23.398;2023-07-28T04:55:07;94945.47;;;15.31;100.00
4415;BME280;2220;42.670;23.398;2023-07-28T04:57:33;94952.22;;;15.37;100.00
4415;BME280;2220;42.670;23.398;2023-07-28T04:59:58;94953.06;;;15.57;100.00
4415;BME280;2220;42.670;23.398;2023-07-28T05:02:23;94952.38;;;15.46;100.00
4415;BME280;2220;42.670;23.398;2023-07-28T05:04:49;94961.03;;;15.71;100.00
4415;BME280;2220;42.670;23.398;2023-07-28T05:07:14;94962.44;;;15.63;100.00
4415;BME280;2220;42.670;23.398;2023-07-28T05:09:40;94974.13;;;15.76;100.00
4415;BME280;2220;42.670;23.398;2023-07-28T05:12:06;94969.28;;;15.64;100.00
4415;BME280;2220;42.670;23.398;2023-07-28T05:14:31;94970.06;;;15.64;100.00
4415;BME280;2220;42.670;23.398;2023-07-28T05:16:57;94959.31;;;15.61;100.00
4415;BME280;2220;42.670;23.398;2023-07-28T05:19:22;94960.59;;;15.63;100.00
4415;BME280;2220;42.670;23.398;2023-07-28T05:21:48;94965.41;;;15.80;100.00
4415;BME280;2220;42.670;23.398;2023-07-28T05:24:13;94960.69;;;15.77;100.00
4415;BME280;2220;42.670;23.398;2023-07-28T05:26:39;94969.59;;;15.81;100.00
4415;BME280;2220;42.670;23.398;2023-07-28T05:29:04;94984.34;;;15.77;100.00
4415;BME280;2220;42.670;23.398;2023-07-28T05:31:29;94972.22;;;15.81;100.00
4415;BME280;2220;42.670;23.398;2023-07-28T05:33:55;94977.19;;;15.83;100.00
4415;BME280;2220;42.670;23.398;2023-07-28T05:36:20;94975.56;;;16.06;100.00
4415;BME280;2220;42.670;23.398;2023-07-28T05:38:46;94992.59;;;15.89;100.00
4415;BME280;2220;42.670;23.398;2023-07-28T05:41:11;94985.84;;;16.02;100.00
4415;BME280;2220;42.670;23.398;2023-07-28T05:43:37;94981.75;;;16.15;100.00
4415;BME280;2220;42.670;23.398;2023-07-28T05:46:02;94974.50;;;16.26;100.00
4415;BME280;2220;42.670;23.398;2023-07-28T05:48:28;94970.38;;;16.19;100.00
4415;BME280;2220;42.670;23.398;2023-07-28T05:50:53;94974.28;;;16.22;100.00
4415;BME280;2220;42.670;23.398;2023-07-28T05:53:20;94974.16;;;16.13;100.00
4415;BME280;2220;42.670;23.398;2023-07-28T05:55:49;94963.00;;;16.21;100.00
4415;BME280;2220;42.670;23.398;2023-07-28T05:58:14;94951.44;;;16.22;100.00
4415;BME280;2220;42.670;23.398;2023-07-28T06:00:40;94954.13;;;16.36;100.00
4415;BME280;2220;42.670;23.398;2023-07-28T06:03:11;94963.03;;;16.35;100.00
4415;BME280;2220;42.670;23.398;2023-07-28T06:05:40;94959.94;;;16.33;100.00
4415;BME280;2220;42.670;23.398;2023-07-28T06:08:06;94949.41;;;16.33;100.00
4415;BME280;2220;42.670;23.398;2023-07-28T06:10:31;94949.41;;;16.33;100.00
4415;BME280;2220;42.670;23.398;2023-07-28T06:12:58;94956.72;;;16.55;100.00
4415;BME280;2220;42.670;23.398;2023-07-28T06:15:23;94962.09;;;16.64;100.00
4415;BME280;2220;42.670;23.398;2023-07-28T06:17:49;94955.84;;;16.60;100.00
4415;BME280;2220;42.670;23.398;2023-07-28T06:20:14;94966.69;;;17.04;100.00
4415;BME280;2220;42.670;23.398;2023-07-28T06:22:39;94976.19;;;17.33;100.00
4415;BME280;2220;42.670;23.398;2023-07-28T06:25:05;94984.28;;;17.37;100.00
4415;BME280;2220;42.670;23.398;2023-07-28T06:27:31;94981.84;;;17.26;100.00
4415;BME280;2220;42.670;23.398;2023-07-28T06:29:56;94997.03;;;17.29;100.00
4415;BME280;2220;42.670;23.398;2023-07-28T06:32:22;94987.78;;;17.32;100.00
4415;BME280;2220;42.670;23.398;2023-07-28T06:34:49;94991.88;;;17.38;100.00
4415;BME280;2220;42.670;23.398;2023-07-28T06:37:14;94994.22;;;17.26;100.00
4415;BME280;2220;42.670;23.398;2023-07-28T06:39:40;94998.91;;;17.43;100.00
4415;BME280;2220;42.670;23.398;2023-07-28T06:42:06;94995.59;;;17.51;100.00
4415;BME280;2220;42.670;23.398;2023-07-28T06:44:32;95001.25;;;17.58;100.00
4415;BME280;2220;42.670;23.398;2023-07-28T06:46:57;94997.94;;;17.80;100.00
4415;BME280;2220;42.670;23.398;2023-07-28T06:49:23;95004.28;;;17.79;100.00
4415;BME280;2220;42.670;23.398;2023-07-28T06:51:48;95001.78;;;17.74;100.00
4415;BME280;2220;42.670;23.398;2023-07-28T06:54:14;95006.75;;;17.89;100.00
4415;BME280;2220;42.670;23.398;2023-07-28T06:56:40;94998.72;;;17.94;100.00
4415;BME280;2220;42.670;23.398;2023-07-28T06:59:07;95011.38;;;18.20;100.00
4415;BME280;2220;42.670;23.398;2023-07-28T07:01:33;95014.91;;;18.01;100.00
4415;BME280;2220;42.670;23.398;2023-07-28T07:03:59;95016.41;;;17.80;100.00
4415;BME280;2220;42.670;23.398;2023-07-28T07:06:24;95021.19;;;18.05;100.00
4415;BME280;2220;42.670;23.398;2023-07-28T07:08:50;95015.75;;;18.24;100.00
4415;BME280;2220;42.670;23.398;2023-07-28T07:11:15;95010.19;;;18.26;100.00
4415;BME280;2220;42.670;23.398;2023-07-28T07:13:41;95009.31;;;18.30;100.00
4415;BME280;2220;42.670;23.398;2023-07-28T07:16:14;95011.63;;;18.32;100.00
4415;BME280;2220;42.670;23.398;2023-07-28T07:18:42;95014.06;;;18.64;100.00
4415;BME280;2220;42.670;23.398;2023-07-28T07:21:07;95019.44;;;18.95;100.00
4415;BME280;2220;42.670;23.398;2023-07-28T07:23:33;95023.66;;;19.27;100.00
4415;BME280;2220;42.670;23.398;2023-07-28T07:25:58;95023.19;;;19.25;100.00
4415;BME280;2220;42.670;23.398;2023-07-28T07:28:23;95028.88;;;19.41;100.00
4415;BME280;2220;42.670;23.398;2023-07-28T07:30:49;95033.97;;;19.38;100.00
4415;BME280;2220;42.670;23.398;2023-07-28T07:33:14;95027.09;;;19.28;100.00
4415;BME280;2220;42.670;23.398;2023-07-28T07:35:40;95026.13;;;19.24;100.00
4415;BME280;2220;42.670;23.398;2023-07-28T07:38:05;95025.59;;;19.44;100.00
4415;BME280;2220;42.670;23.398;2023-07-28T07:40:35;95035.88;;;19.46;100.00
4415;BME280;2220;42.670;23.398;2023-07-28T07:43:01;95032.22;;;19.64;100.00
4415;BME280;2220;42.670;23.398;2023-07-28T07:45:28;95040.34;;;19.68;100.00
4415;BME280;2220;42.670;23.398;2023-07-28T07:47:54;95043.53;;;19.96;100.00
4415;BME280;2220;42.670;23.398;2023-07-28T07:50:20;95036.22;;;19.93;100.00
4415;BME280;2220;42.670;23.398;2023-07-28T07:52:47;95031.38;;;19.86;100.00
4415;BME280;2220;42.670;23.398;2023-07-28T07:55:13;95034.09;;;20.12;100.00
4415;BME280;2220;42.670;23.398;2023-07-28T07:57:42;95042.22;;;20.33;100.00
4415;BME280;2220;42.670;23.398;2023-07-28T08:00:08;95041.91;;;20.26;100.00
4415;BME280;2220;42.670;23.398;2023-07-28T08:02:34;95044.22;;;20.27;100.00
4415;BME280;2220;42.670;23.398;2023-07-28T08:05:00;95047.03;;;20.22;100.00
4415;BME280;2220;42.670;23.398;2023-07-28T08:07:26;95043.94;;;20.37;100.00
4415;BME280;2220;42.670;23.398;2023-07-28T08:09:51;95046.78;;;20.50;100.00
4415;BME280;2220;42.670;23.398;2023-07-28T08:12:17;95036.66;;;20.52;100.00
4415;BME280;2220;42.670;23.398;2023-07-28T08:14:43;95040.72;;;20.58;100.00
4415;BME280;2220;42.670;23.398;2023-07-28T08:17:09;95045.88;;;20.63;100.00
4415;BME280;2220;42.670;23.398;2023-07-28T08:19:35;95041.81;;;20.74;100.00
4415;BME280;2220;42.670;23.398;2023-07-28T08:22:01;95035.59;;;20.79;100.00
4415;BME280;2220;42.670;23.398;2023-07-28T08:24:29;95034.44;;;21.14;100.00
4415;BME280;2220;42.670;23.398;2023-07-28T08:26:54;95030.88;;;21.10;100.00
4415;BME280;2220;42.670;23.398;2023-07-28T08:29:20;95036.75;;;21.33;100.00
4415;BME280;2220;42.670;23.398;2023-07-28T08:31:45;95028.69;;;21.68;100.00
4415;BME280;2220;42.670;23.398;2023-07-28T08:34:10;95029.84;;;21.88;100.00
4415;BME280;2220;42.670;23.398;2023-07-28T08:36:36;95030.00;;;22.21;100.00
4415;BME280;2220;42.670;23.398;2023-07-28T08:39:01;95024.31;;;22.01;100.00
4415;BME280;2220;42.670;23.398;2023-07-28T08:41:27;95030.38;;;22.11;100.00
4415;BME280;2220;42.670;23.398;2023-07-28T08:43:53;95026.72;;;22.45;99.18
4415;BME280;2220;42.670;23.398;2023-07-28T08:46:20;95029.53;;;22.48;99.14
4415;BME280;2220;42.670;23.398;2023-07-28T08:48:45;95023.16;;;22.61;99.95
4415;BME280;2220;42.670;23.398;2023-07-28T08:51:13;95024.44;;;22.76;98.38
4415;BME280;2220;42.670;23.398;2023-07-28T08:53:39;95025.38;;;22.39;94.62
4415;BME280;2220;42.670;23.398;2023-07-28T08:56:05;95019.22;;;22.26;96.14
4415;BME280;2220;42.670;23.398;2023-07-28T08:58:31;95015.00;;;22.67;99.80
4415;BME280;2220;42.670;23.398;2023-07-28T09:00:56;95011.38;;;22.92;95.63
4415;BME280;2220;42.670;23.398;2023-07-28T09:03:26;95003.28;;;23.22;94.84
4415;BME280;2220;42.670;23.398;2023-07-28T09:05:59;95007.63;;;23.38;93.27
4415;BME280;2220;42.670;23.398;2023-07-28T09:08:24;95001.34;;;23.55;91.73
4415;BME280;2220;42.670;23.398;2023-07-28T09:10:50;94991.59;;;23.59;91.08
4415;BME280;2220;42.670;23.398;2023-07-28T09:13:17;94994.41;;;23.75;88.62
4415;BME280;2220;42.670;23.398;2023-07-28T09:15:44;94990.22;;;23.29;86.80
4415;BME280;2220;42.670;23.398;2023-07-28T09:18:10;94982.50;;;23.36;88.16
4415;BME280;2220;42.670;23.398;2023-07-28T09:20:38;94977.81;;;23.21;88.50
4415;BME280;2220;42.670;23.398;2023-07-28T09:23:07;94980.91;;;23.23;88.11
4415;BME280;2220;42.670;23.398;2023-07-28T09:25:33;94979.78;;;23.11;87.51
4415;BME280;2220;42.670;23.398;2023-07-28T09:27:59;94967.97;;;23.21;89.63
4415;BME280;2220;42.670;23.398;2023-07-28T09:30:25;94963.22;;;23.27;88.74
4415;BME280;2220;42.670;23.398;2023-07-28T09:32:55;94962.00;;;23.36;87.93
4415;BME280;2220;42.670;23.398;2023-07-28T09:35:21;94951.97;;;23.66;86.18
4415;BME280;2220;42.670;23.398;2023-07-28T09:37:49;94950.75;;;23.64;85.92
4415;BME280;2220;42.670;23.398;2023-07-28T09:40:20;94951.59;;;23.56;85.68
4415;BME280;2220;42.670;23.398;2023-07-28T09:42:48;94953.84;;;23.78;86.22
4415;BME280;2220;42.670;23.398;2023-07-28T09:45:20;94933.72;;;24.17;85.56
4415;BME280;2220;42.670;23.398;2023-07-28T09:47:47;94927.25;;;24.31;86.10
4415;BME280;2220;42.670;23.398;2023-07-28T09:50:18;94922.09;;;24.50;86.02
4415;BME280;2220;42.670;23.398;2023-07-28T09:52:46;94927.34;;;24.46;84.86
4415;BME280;2220;42.670;23.398;2023-07-28T09:55:12;94933.53;;;24.78;85.10
4415;BME280;2220;42.670;23.398;2023-07-28T09:58:01;94933.69;;;24.86;81.99
4415;BME280;2220;42.670;23.398;2023-07-28T10:00:29;94931.72;;;24.82;79.94
4415;BME280;2220;42.670;23.398;2023-07-28T10:02:56;94928.09;;;25.03;77.09
4415;BME280;2220;42.670;23.398;2023-07-28T10:05:21;94921.94;;;25.02;76.61
4415;BME280;2220;42.670;23.398;2023-07-28T10:07:48;94920.53;;;25.21;78.00
4415;BME280;2220;42.670;23.398;2023-07-28T10:10:14;94918.28;;;25.23;77.84
4415;BME280;2220;42.670;23.398;2023-07-28T10:12:48;94910.09;;;25.47;76.33
4415;BME280;2220;42.670;23.398;2023-07-28T10:15:19;94917.66;;;25.77;76.41
4415;BME280;2220;42.670;23.398;2023-07-28T10:17:54;94921.44;;;25.91;76.67
4415;BME280;2220;42.670;23.398;2023-07-28T10:20:36;94915.75;;;25.93;72.81
4415;BME280;2220;42.670;23.398;2023-07-28T10:23:11;94909.38;;;26.17;71.75
4415;BME280;2220;42.670;23.398;2023-07-28T10:25:38;94907.84;;;26.16;72.43
4415;BME280;2220;42.670;23.398;2023-07-28T10:28:34;94906.41;;;26.22;70.35
4415;BME280;2220;42.670;23.398;2023-07-28T10:31:05;94908.53;;;26.32;70.10
4415;BME280;2220;42.670;23.398;2023-07-28T10:33:39;94898.28;;;26.34;69.48
4415;BME280;2220;42.670;23.398;2023-07-28T10:39:14;94894.75;;;26.69;67.48
4415;BME280;2220;42.670;23.398;2023-07-28T10:42:00;94888.63;;;27.11;65.67
4415;BME280;2220;42.670;23.398;2023-07-28T10:44:27;94881.28;;;26.85;65.97
4415;BME280;2220;42.670;23.398;2023-07-28T10:46:52;94889.78;;;26.90;66.08
4415;BME280;2220;42.670;23.398;2023-07-28T10:49:18;94886.47;;;26.97;66.98
4415;BME280;2220;42.670;23.398;2023-07-28T10:51:43;94884.25;;;27.22;68.54
4415;BME280;2220;42.670;23.398;2023-07-28T10:54:08;94887.94;;;27.14;66.15
4415;BME280;2220;42.670;23.398;2023-07-28T10:56:34;94876.50;;;27.17;65.38
4415;BME280;2220;42.670;23.398;2023-07-28T10:59:02;94874.22;;;27.42;65.56
4415;BME280;2220;42.670;23.398;2023-07-28T11:01:35;94882.81;;;27.28;62.94
4415;BME280;2220;42.670;23.398;2023-07-28T11:04:11;94861.44;;;27.28;63.04
4415;BME280;2220;42.670;23.398;2023-07-28T11:06:38;94863.22;;;27.47;65.14
4415;BME280;2220;42.670;23.398;2023-07-28T11:09:08;94859.03;;;27.72;63.72
4415;BME280;2220;42.670;23.398;2023-07-28T11:11:38;94851.06;;;27.76;61.52
4415;BME280;2220;42.670;23.398;2023-07-28T11:14:05;94852.81;;;27.42;62.43
4415;BME280;2220;42.670;23.398;2023-07-28T11:16:40;94851.06;;;27.26;63.49
4415;BME280;2220;42.670;23.398;2023-07-28T11:19:10;94837.28;;;27.01;63.16
4415;BME280;2220;42.670;23.398;2023-07-28T11:21:40;94835.88;;;26.85;64.10
4415;BME280;2220;42.670;23.398;2023-07-28T11:24:10;94839.97;;;27.01;63.78
4415;BME280;2220;42.670;23.398;2023-07-28T11:26:39;94840.13;;;27.35;63.66
4415;BME280;2220;42.670;23.398;2023-07-28T11:29:05;94832.63;;;27.71;62.25
4415;BME280;2220;42.670;23.398;2023-07-28T11:31:31;94830.59;;;27.64;65.03
4415;BME280;2220;42.670;23.398;2023-07-28T11:33:58;94819.00;;;28.13;61.87
4415;BME280;2220;42.670;23.398;2023-07-28T11:36:27;94829.59;;;28.32;62.23
4415;BME280;2220;42.670;23.398;2023-07-28T11:38:54;94819.81;;;27.83;63.30
4415;BME280;2220;42.670;23.398;2023-07-28T11:41:21;94812.50;;;28.14;62.24
4415;BME280;2220;42.670;23.398;2023-07-28T11:43:48;94823.28;;;28.18;61.90
4415;BME280;2220;42.670;23.398;2023-07-28T11:46:36;94818.66;;;28.48;63.32
4415;BME280;2220;42.670;23.398;2023-07-28T11:49:10;94814.09;;;28.93;60.15
4415;BME280;2220;42.670;23.398;2023-07-28T11:51:41;94806.72;;;28.83;61.08
4415;BME280;2220;42.670;23.398;2023-07-28T11:54:13;94819.19;;;29.05;58.52
4415;BME280;2220;42.670;23.398;2023-07-28T11:56:41;94821.53;;;28.69;58.05
4415;BME280;2220;42.670;23.398;2023-07-28T11:59:07;94807.78;;;29.19;56.08
4415;BME280;2220;42.670;23.398;2023-07-28T12:01:33;94805.56;;;29.94;54.93
4415;BME280;2220;42.670;23.398;2023-07-28T12:03:58;94798.13;;;29.62;54.28
4415;BME280;2220;42.670;23.398;2023-07-28T12:06:26;94790.69;;;30.11;54.63
4415;BME280;2220;42.670;23.398;2023-07-28T12:08:52;94797.88;;;29.99;55.85
4415;BME280;2220;42.670;23.398;2023-07-28T12:11:17;94808.34;;;30.08;52.83
4415;BME280;2220;42.670;23.398;2023-07-28T12:13:50;94813.97;;;29.85;54.61
4415;BME280;2220;42.670;23.398;2023-07-28T12:16:38;94792.50;;;29.26;54.75
4415;BME280;2220;42.670;23.398;2023-07-28T12:19:05;94793.59;;;29.18;52.55
4415;BME280;2220;42.670;23.398;2023-07-28T12:21:31;94788.88;;;29.56;54.02
4415;BME280;2220;42.670;23.398;2023-07-28T12:23:56;94774.41;;;29.75;52.72
4415;BME280;2220;42.670;23.398;2023-07-28T12:26:22;94777.84;;;29.72;55.46
4415;BME280;2220;42.670;23.398;2023-07-28T12:28:47;94775.94;;;29.69;53.11
4415;BME280;2220;42.670;23.398;2023-07-28T12:31:13;94778.94;;;29.60;53.16
4415;BME280;2220;42.670;23.398;2023-07-28T12:33:38;94774.25;;;29.46;52.85
4415;BME280;2220;42.670;23.398;2023-07-28T12:36:04;94774.81;;;29.77;52.36
4415;BME280;2220;42.670;23.398;2023-07-28T12:38:31;94778.78;;;30.08;52.19
4415;BME280;2220;42.670;23.398;2023-07-28T12:40:56;94762.63;;;30.01;52.74
4415;BME280;2220;42.670;23.398;2023-07-28T12:43:22;94759.25;;;30.29;54.54
4415;BME280;2220;42.670;23.398;2023-07-28T12:45:48;94759.28;;;30.43;56.93
4415;BME280;2220;42.670;23.398;2023-07-28T12:48:13;94742.72;;;30.09;57.43
4415;BME280;2220;42.670;23.398;2023-07-28T12:50:38;94757.19;;;29.90;59.29
4415;BME280;2220;42.670;23.398;2023-07-28T12:53:04;94763.06;;;30.14;57.14
4415;BME280;2220;42.670;23.398;2023-07-28T12:55:29;94758.50;;;30.35;58.04
4415;BME280;2220;42.670;23.398;2023-07-28T12:57:55;94758.16;;;30.41;56.77
4415;BME280;2220;42.670;23.398;2023-07-28T13:00:20;94752.03;;;30.65;56.94
4415;BME280;2220;42.670;23.398;2023-07-28T13:02:46;94753.53;;;30.34;56.42
4415;BME280;2220;42.670;23.398;2023-07-28T13:05:13;94749.69;;;30.63;52.06
4415;BME280;2220;42.670;23.398;2023-07-28T13:07:40;94760.50;;;30.74;50.97